createdAt,value
2023-03-29T00:00:33.000Z,996.0
2023-03-29T00:01:33.000Z,982.0
2023-03-29T00:03:33.000Z,1017.0
2023-03-29T00:04:32.000Z,1026.0
2023-03-29T00:05:33.000Z,1019.0
2023-03-29T00:06:33.000Z,1050.0
2023-03-29T00:07:33.000Z,1051.0
2023-03-29T00:08:33.000Z,1040.0
2023-03-29T00:09:34.000Z,1043.0
2023-03-29T00:10:33.000Z,1052.0
2023-03-29T00:11:33.000Z,1096.0
2023-03-29T00:12:32.000Z,1067.0
2023-03-29T00:13:33.000Z,1112.0
2023-03-29T00:14:33.000Z,1136.0
2023-03-29T00:15:33.000Z,1152.0
2023-03-29T00:16:33.000Z,1123.0
2023-03-29T00:17:32.000Z,1125.0
2023-03-29T00:18:33.000Z,1151.0
2023-03-29T00:19:33.000Z,1159.0
2023-03-29T00:20:33.000Z,1142.0
2023-03-29T00:21:33.000Z,1175.0
2023-03-29T00:22:34.000Z,1163.0
2023-03-29T00:23:33.000Z,1170.0
2023-03-29T00:24:33.000Z,1136.0
2023-03-29T00:25:32.000Z,1155.0
2023-03-29T00:26:33.000Z,1158.0
2023-03-29T00:27:33.000Z,1174.0
2023-03-29T00:28:33.000Z,1184.0
2023-03-29T00:29:33.000Z,1184.0
2023-03-29T00:30:32.000Z,1188.0
2023-03-29T00:31:33.000Z,1190.0
2023-03-29T00:32:33.000Z,1224.0
2023-03-29T00:33:33.000Z,1165.0
2023-03-29T00:34:33.000Z,1167.0
2023-03-29T00:35:34.000Z,1179.0
2023-03-29T00:36:33.000Z,1199.0
2023-03-29T00:37:33.000Z,1237.0
2023-03-29T00:38:32.000Z,1261.0
2023-03-29T00:39:33.000Z,1260.0
2023-03-29T00:40:33.000Z,1265.0
2023-03-29T00:41:33.000Z,1246.0
2023-03-29T00:42:33.000Z,1264.0
2023-03-29T00:43:32.000Z,1267.0
2023-03-29T00:44:33.000Z,1267.0
2023-03-29T00:45:33.000Z,1286.0
2023-03-29T00:46:32.000Z,1265.0
2023-03-29T00:47:33.000Z,1263.0
2023-03-29T00:48:33.000Z,1255.0
2023-03-29T00:49:32.000Z,1242.0
2023-03-29T00:50:33.000Z,1236.0
2023-03-29T00:51:33.000Z,1259.0
2023-03-29T00:52:33.000Z,1266.0
2023-03-29T00:53:33.000Z,1230.0
2023-03-29T00:54:32.000Z,1220.0
2023-03-29T00:55:33.000Z,1251.0
2023-03-29T00:56:33.000Z,1231.0
2023-03-29T00:57:32.000Z,1250.0
2023-03-29T00:58:33.000Z,1231.0
2023-03-29T00:59:33.000Z,1237.0
2023-03-29T01:00:33.000Z,1280.0
2023-03-29T01:01:33.000Z,1262.0
2023-03-29T01:02:32.000Z,1263.0
2023-03-29T01:03:33.000Z,1246.0
2023-03-29T01:04:33.000Z,1251.0
2023-03-29T01:05:33.000Z,1245.0
2023-03-29T01:06:33.000Z,1241.0
2023-03-29T01:07:34.000Z,1247.0
2023-03-29T01:08:33.000Z,1252.0
2023-03-29T01:09:33.000Z,1257.0
2023-03-29T01:10:32.000Z,1270.0
2023-03-29T01:11:33.000Z,1274.0
2023-03-29T01:12:33.000Z,1283.0
2023-03-29T01:13:33.000Z,1255.0
2023-03-29T01:14:33.000Z,1268.0
2023-03-29T01:15:32.000Z,1276.0
2023-03-29T01:16:33.000Z,1265.0
2023-03-29T01:17:33.000Z,1260.0
2023-03-29T01:18:33.000Z,1258.0
2023-03-29T01:19:33.000Z,1247.0
2023-03-29T01:20:34.000Z,1273.0
2023-03-29T01:21:33.000Z,1254.0
2023-03-29T01:22:33.000Z,1283.0
2023-03-29T01:23:32.000Z,1284.0
2023-03-29T01:24:33.000Z,1302.0
2023-03-29T01:25:33.000Z,1302.0
2023-03-29T01:26:33.000Z,1265.0
2023-03-29T01:27:33.000Z,1315.0
2023-03-29T01:28:32.000Z,1299.0
2023-03-29T01:29:33.000Z,1286.0
2023-03-29T01:30:33.000Z,1279.0
2023-03-29T01:31:33.000Z,1248.0
2023-03-29T01:32:33.000Z,1248.0
2023-03-29T01:33:33.000Z,1248.0
2023-03-29T01:34:33.000Z,1223.0
2023-03-29T01:35:33.000Z,1237.0
2023-03-29T01:36:32.000Z,1242.0
2023-03-29T01:37:33.000Z,1239.0
2023-03-29T01:38:33.000Z,1269.0
2023-03-29T01:39:33.000Z,1251.0
2023-03-29T01:40:33.000Z,1247.0
2023-03-29T01:41:32.000Z,1263.0
2023-03-29T01:42:33.000Z,1251.0
2023-03-29T01:43:33.000Z,1250.0
2023-03-29T01:44:32.000Z,1248.0
2023-03-29T01:45:33.000Z,1247.0
2023-03-29T01:46:33.000Z,1229.0
2023-03-29T01:47:33.000Z,1196.0
2023-03-29T01:48:33.000Z,1238.0
2023-03-29T01:49:32.000Z,1237.0
2023-03-29T01:50:33.000Z,1236.0
2023-03-29T01:51:33.000Z,1252.0
2023-03-29T01:52:33.000Z,1281.0
2023-03-29T01:53:33.000Z,1289.0
2023-03-29T01:54:32.000Z,1252.0
2023-03-29T01:55:33.000Z,1233.0
2023-03-29T01:56:33.000Z,1263.0
2023-03-29T01:57:32.000Z,1240.0
2023-03-29T01:58:33.000Z,1282.0
2023-03-29T01:59:33.000Z,1250.0
2023-03-29T02:00:33.000Z,1247.0
2023-03-29T02:01:33.000Z,1262.0
2023-03-29T02:02:32.000Z,1263.0
2023-03-29T02:03:33.000Z,1249.0
2023-03-29T02:04:33.000Z,1250.0
2023-03-29T02:05:33.000Z,1247.0
2023-03-29T02:06:33.000Z,1275.0
2023-03-29T02:07:34.000Z,1259.0
2023-03-29T02:08:33.000Z,1235.0
2023-03-29T02:09:33.000Z,1259.0
2023-03-29T02:10:32.000Z,1257.0
2023-03-29T02:11:33.000Z,1250.0
2023-03-29T02:12:33.000Z,1249.0
2023-03-29T02:13:33.000Z,1270.0
2023-03-29T02:14:33.000Z,1252.0
2023-03-29T02:15:32.000Z,1278.0
2023-03-29T02:16:33.000Z,1274.0
2023-03-29T02:17:33.000Z,1219.0
2023-03-29T02:18:33.000Z,1198.0
2023-03-29T02:19:33.000Z,1206.0
2023-03-29T02:20:32.000Z,1215.0
2023-03-29T02:21:33.000Z,1216.0
2023-03-29T02:22:33.000Z,1211.0
2023-03-29T02:23:32.000Z,1253.0
2023-03-29T02:24:33.000Z,1262.0
2023-03-29T02:25:33.000Z,1245.0
2023-03-29T02:26:33.000Z,1230.0
2023-03-29T02:27:33.000Z,1240.0
2023-03-29T02:28:32.000Z,1215.0
2023-03-29T02:29:33.000Z,1248.0
2023-03-29T02:30:33.000Z,1236.0
2023-03-29T02:31:33.000Z,1227.0
2023-03-29T02:32:33.000Z,1213.0
2023-03-29T02:33:34.000Z,1239.0
2023-03-29T02:34:33.000Z,1266.0
2023-03-29T02:35:33.000Z,1242.0
2023-03-29T02:36:32.000Z,1236.0
2023-03-29T02:37:33.000Z,1247.0
2023-03-29T02:38:33.000Z,1222.0
2023-03-29T02:39:33.000Z,1248.0
2023-03-29T02:40:33.000Z,1234.0
2023-03-29T02:41:32.000Z,1235.0
2023-03-29T02:42:33.000Z,1236.0
2023-03-29T02:43:33.000Z,1242.0
2023-03-29T02:44:33.000Z,1203.0
2023-03-29T02:45:33.000Z,1221.0
2023-03-29T02:46:33.000Z,1223.0
2023-03-29T02:47:33.000Z,1239.0
2023-03-29T02:48:33.000Z,1226.0
2023-03-29T02:49:32.000Z,1204.0
2023-03-29T02:50:33.000Z,1215.0
2023-03-29T02:51:33.000Z,1239.0
2023-03-29T02:52:33.000Z,1236.0
2023-03-29T02:53:33.000Z,1222.0
2023-03-29T02:54:32.000Z,1252.0
2023-03-29T02:55:33.000Z,1224.0
2023-03-29T02:56:33.000Z,1228.0
2023-03-29T02:57:32.000Z,1239.0
2023-03-29T02:58:33.000Z,1231.0
2023-03-29T02:59:33.000Z,1211.0
2023-03-29T03:00:33.000Z,1216.0
2023-03-29T03:01:33.000Z,1240.0
2023-03-29T03:02:32.000Z,1221.0
2023-03-29T03:03:33.000Z,1214.0
2023-03-29T03:04:33.000Z,1212.0
2023-03-29T03:05:33.000Z,1216.0
2023-03-29T03:06:33.000Z,1229.0
2023-03-29T03:07:32.000Z,1243.0
2023-03-29T03:08:33.000Z,1243.0
2023-03-29T03:09:33.000Z,1230.0
2023-03-29T03:10:32.000Z,1242.0
2023-03-29T03:11:33.000Z,1232.0
2023-03-29T03:12:33.000Z,1243.0
2023-03-29T03:13:33.000Z,1263.0
2023-03-29T03:14:33.000Z,1245.0
2023-03-29T03:15:32.000Z,1259.0
2023-03-29T03:16:33.000Z,1257.0
2023-03-29T03:17:33.000Z,1235.0
2023-03-29T03:18:33.000Z,1218.0
2023-03-29T03:19:33.000Z,1233.0
2023-03-29T03:20:32.000Z,1240.0
2023-03-29T03:21:33.000Z,1228.0
2023-03-29T03:22:33.000Z,1207.0
2023-03-29T03:23:32.000Z,1210.0
2023-03-29T03:24:33.000Z,1207.0
2023-03-29T03:25:33.000Z,1239.0
2023-03-29T03:26:33.000Z,1264.0
2023-03-29T03:27:33.000Z,1244.0
2023-03-29T03:28:32.000Z,1251.0
2023-03-29T03:29:33.000Z,1244.0
2023-03-29T03:30:33.000Z,1228.0
2023-03-29T03:31:33.000Z,1236.0
2023-03-29T03:32:33.000Z,1226.0
2023-03-29T03:33:34.000Z,1220.0
2023-03-29T03:34:33.000Z,1213.0
2023-03-29T03:35:33.000Z,1190.0
2023-03-29T03:36:32.000Z,1222.0
2023-03-29T03:37:33.000Z,1234.0
2023-03-29T03:38:33.000Z,1202.0
2023-03-29T03:39:33.000Z,1185.0
2023-03-29T03:40:33.000Z,1187.0
2023-03-29T03:41:32.000Z,1215.0
2023-03-29T03:42:33.000Z,1259.0
2023-03-29T03:43:33.000Z,1192.0
2023-03-29T03:44:33.000Z,1168.0
2023-03-29T03:45:33.000Z,1215.0
2023-03-29T03:46:33.000Z,1208.0
2023-03-29T03:47:33.000Z,1216.0
2023-03-29T03:48:33.000Z,1220.0
2023-03-29T03:49:32.000Z,1244.0
2023-03-29T03:50:33.000Z,1239.0
2023-03-29T03:51:33.000Z,1221.0
2023-03-29T03:52:33.000Z,1208.0
2023-03-29T03:53:33.000Z,1218.0
2023-03-29T03:54:32.000Z,1232.0
2023-03-29T03:55:33.000Z,1230.0
2023-03-29T03:56:33.000Z,1211.0
2023-03-29T03:57:32.000Z,1212.0
2023-03-29T03:58:33.000Z,1210.0
2023-03-29T03:59:34.000Z,1193.0
2023-03-29T04:00:33.000Z,1180.0
2023-03-29T04:01:33.000Z,1196.0
2023-03-29T04:02:32.000Z,1223.0
2023-03-29T04:03:33.000Z,1202.0
2023-03-29T04:04:33.000Z,1242.0
2023-03-29T04:05:33.000Z,1236.0
2023-03-29T04:06:33.000Z,1210.0
2023-03-29T04:07:32.000Z,1194.0
2023-03-29T04:08:33.000Z,1167.0
2023-03-29T04:09:33.000Z,1181.0
2023-03-29T04:10:33.000Z,1162.0
2023-03-29T04:11:33.000Z,1164.0
2023-03-29T04:12:33.000Z,1191.0
2023-03-29T04:13:33.000Z,1233.0
2023-03-29T04:14:33.000Z,1251.0
2023-03-29T04:15:32.000Z,1248.0
2023-03-29T04:16:33.000Z,1262.0
2023-03-29T04:17:33.000Z,1113.0
2023-03-29T04:18:33.000Z,1161.0
2023-03-29T04:19:33.000Z,1225.0
2023-03-29T04:20:32.000Z,1278.0
2023-03-29T04:21:33.000Z,1288.0
2023-03-29T04:22:33.000Z,1252.0
2023-03-29T04:23:32.000Z,1274.0
2023-03-29T04:24:33.000Z,1256.0
2023-03-29T04:25:33.000Z,1263.0
2023-03-29T04:26:33.000Z,1258.0
2023-03-29T04:27:33.000Z,1231.0
2023-03-29T04:28:32.000Z,1258.0
2023-03-29T04:29:33.000Z,1274.0
2023-03-29T04:30:33.000Z,1273.0
2023-03-29T04:31:33.000Z,1274.0
2023-03-29T04:32:33.000Z,1265.0
2023-03-29T04:33:32.000Z,1258.0
2023-03-29T04:34:33.000Z,1259.0
2023-03-29T04:35:33.000Z,1264.0
2023-03-29T04:36:32.000Z,1265.0
2023-03-29T04:37:33.000Z,1271.0
2023-03-29T04:38:33.000Z,1279.0
2023-03-29T04:39:33.000Z,1262.0
2023-03-29T04:40:33.000Z,1276.0
2023-03-29T04:41:32.000Z,1289.0
2023-03-29T04:42:33.000Z,1274.0
2023-03-29T04:43:33.000Z,1266.0
2023-03-29T04:44:33.000Z,1267.0
2023-03-29T04:45:33.000Z,1261.0
2023-03-29T04:46:33.000Z,1268.0
2023-03-29T04:47:33.000Z,1287.0
2023-03-29T04:48:33.000Z,1253.0
2023-03-29T04:49:33.000Z,1285.0
2023-03-29T04:50:33.000Z,1299.0
2023-03-29T04:51:33.000Z,1259.0
2023-03-29T04:52:32.000Z,1269.0
2023-03-29T04:53:33.000Z,1282.0
2023-03-29T04:54:33.000Z,1292.0
2023-03-29T04:55:33.000Z,1273.0
2023-03-29T04:56:33.000Z,1280.0
2023-03-29T04:57:33.000Z,1280.0
2023-03-29T04:58:33.000Z,1305.0
2023-03-29T04:59:33.000Z,1263.0
2023-03-29T05:00:32.000Z,1278.0
2023-03-29T05:01:33.000Z,1303.0
2023-03-29T05:02:33.000Z,1292.0
2023-03-29T05:03:33.000Z,1270.0
2023-03-29T05:04:33.000Z,1246.0
2023-03-29T05:05:32.000Z,1252.0
2023-03-29T05:06:33.000Z,1271.0
2023-03-29T05:07:33.000Z,1259.0
2023-03-29T05:08:32.000Z,1248.0
2023-03-29T05:09:33.000Z,1246.0
2023-03-29T05:10:34.000Z,1253.0
2023-03-29T05:11:33.000Z,1248.0
2023-03-29T05:12:33.000Z,1265.0
2023-03-29T05:13:32.000Z,1282.0
2023-03-29T05:14:33.000Z,1289.0
2023-03-29T05:15:33.000Z,1265.0
2023-03-29T05:16:33.000Z,1290.0
2023-03-29T05:17:33.000Z,1311.0
2023-03-29T05:18:32.000Z,1281.0
2023-03-29T05:19:33.000Z,1294.0
2023-03-29T05:20:33.000Z,1288.0
2023-03-29T05:21:33.000Z,1298.0
2023-03-29T05:22:33.000Z,1282.0
2023-03-29T05:23:33.000Z,1277.0
2023-03-29T05:24:33.000Z,1324.0
2023-03-29T05:25:33.000Z,1287.0
2023-03-29T05:26:32.000Z,1274.0
2023-03-29T05:27:33.000Z,1269.0
2023-03-29T05:28:33.000Z,1306.0
2023-03-29T05:29:33.000Z,1306.0
2023-03-29T05:30:33.000Z,1294.0
2023-03-29T05:31:32.000Z,1280.0
2023-03-29T05:32:33.000Z,1266.0
2023-03-29T05:33:33.000Z,1277.0
2023-03-29T05:34:32.000Z,1281.0
2023-03-29T05:35:33.000Z,1285.0
2023-03-29T05:36:33.000Z,1301.0
2023-03-29T05:37:33.000Z,1285.0
2023-03-29T05:38:33.000Z,1295.0
2023-03-29T05:39:32.000Z,1305.0
2023-03-29T05:40:33.000Z,1281.0
2023-03-29T05:41:33.000Z,1285.0
2023-03-29T05:42:33.000Z,1282.0
2023-03-29T05:43:33.000Z,1301.0
2023-03-29T05:44:32.000Z,1296.0
2023-03-29T05:45:33.000Z,1284.0
2023-03-29T05:46:33.000Z,1304.0
2023-03-29T05:47:34.000Z,1283.0
2023-03-29T05:48:33.000Z,1282.0
2023-03-29T05:49:33.000Z,1273.0
2023-03-29T05:50:32.000Z,1292.0
2023-03-29T05:51:33.000Z,1275.0
2023-03-29T05:52:33.000Z,1303.0
2023-03-29T05:53:33.000Z,1282.0
2023-03-29T05:54:33.000Z,1312.0
2023-03-29T05:55:34.000Z,1264.0
2023-03-29T05:56:33.000Z,1254.0
2023-03-29T05:57:33.000Z,1269.0
2023-03-29T05:58:32.000Z,1272.0
2023-03-29T05:59:33.000Z,1272.0
2023-03-29T06:00:33.000Z,1247.0
2023-03-29T06:01:33.000Z,1245.0
2023-03-29T06:02:33.000Z,1272.0
2023-03-29T06:03:32.000Z,1263.0
2023-03-29T06:04:33.000Z,1250.0
2023-03-29T06:05:33.000Z,1259.0
2023-03-29T06:06:33.000Z,1267.0
2023-03-29T06:07:33.000Z,1252.0
2023-03-29T06:08:33.000Z,1253.0
2023-03-29T06:09:33.000Z,1248.0
2023-03-29T06:10:33.000Z,1272.0
2023-03-29T06:11:32.000Z,1280.0
2023-03-29T06:12:33.000Z,1242.0
2023-03-29T06:13:33.000Z,1241.0
2023-03-29T06:14:33.000Z,1244.0
2023-03-29T06:15:33.000Z,1227.0
2023-03-29T06:16:32.000Z,1247.0
2023-03-29T06:17:33.000Z,1223.0
2023-03-29T06:18:33.000Z,1236.0
2023-03-29T06:19:32.000Z,1254.0
2023-03-29T06:20:33.000Z,1246.0
2023-03-29T06:21:33.000Z,1228.0
2023-03-29T06:22:33.000Z,1227.0
2023-03-29T06:23:33.000Z,1225.0
2023-03-29T06:24:32.000Z,1239.0
2023-03-29T06:25:33.000Z,1244.0
2023-03-29T06:26:33.000Z,1238.0
2023-03-29T06:27:33.000Z,1256.0
2023-03-29T06:28:33.000Z,1268.0
2023-03-29T06:29:32.000Z,1283.0
2023-03-29T06:30:33.000Z,1269.0
2023-03-29T06:31:33.000Z,1250.0
2023-03-29T06:32:32.000Z,1252.0
2023-03-29T06:33:33.000Z,1269.0
2023-03-29T06:34:33.000Z,1276.0
2023-03-29T06:35:33.000Z,1279.0
2023-03-29T06:36:33.000Z,1272.0
2023-03-29T06:37:32.000Z,1244.0
2023-03-29T06:38:33.000Z,1247.0
2023-03-29T06:39:33.000Z,1262.0
2023-03-29T06:40:33.000Z,1274.0
2023-03-29T06:41:33.000Z,1262.0
2023-03-29T06:42:32.000Z,1247.0
2023-03-29T06:43:33.000Z,1260.0
2023-03-29T06:44:33.000Z,1254.0
2023-03-29T06:45:34.000Z,1238.0
2023-03-29T06:46:33.000Z,1252.0
2023-03-29T06:47:33.000Z,1224.0
2023-03-29T06:48:32.000Z,1260.0
2023-03-29T06:49:33.000Z,1262.0
2023-03-29T06:50:33.000Z,1233.0
2023-03-29T06:51:33.000Z,1275.0
2023-03-29T06:52:33.000Z,1258.0
2023-03-29T06:53:32.000Z,1262.0
2023-03-29T06:54:33.000Z,1253.0
2023-03-29T06:55:33.000Z,1248.0
2023-03-29T06:56:32.000Z,1267.0
2023-03-29T06:57:33.000Z,1255.0
2023-03-29T06:58:33.000Z,1259.0
2023-03-29T06:59:33.000Z,1244.0
2023-03-29T07:00:33.000Z,1274.0
2023-03-29T07:01:32.000Z,1255.0
2023-03-29T07:02:33.000Z,1244.0
2023-03-29T07:03:33.000Z,1235.0
2023-03-29T07:04:33.000Z,1223.0
2023-03-29T07:05:33.000Z,1245.0
2023-03-29T07:06:32.000Z,1248.0
2023-03-29T07:07:33.000Z,1257.0
2023-03-29T07:08:33.000Z,1272.0
2023-03-29T07:09:32.000Z,1254.0
2023-03-29T07:10:33.000Z,1248.0
2023-03-29T07:11:33.000Z,1248.0
2023-03-29T07:12:33.000Z,1265.0
2023-03-29T07:13:33.000Z,1275.0
2023-03-29T07:14:32.000Z,1256.0
2023-03-29T07:15:33.000Z,1266.0
2023-03-29T07:16:33.000Z,1274.0
2023-03-29T07:17:33.000Z,1272.0
2023-03-29T07:18:33.000Z,1267.0
2023-03-29T07:19:32.000Z,1261.0
2023-03-29T07:20:33.000Z,1284.0
2023-03-29T07:21:33.000Z,1317.0
2023-03-29T07:22:32.000Z,1315.0
2023-03-29T07:23:33.000Z,1304.0
2023-03-29T07:24:33.000Z,1276.0
2023-03-29T07:25:33.000Z,1266.0
2023-03-29T07:26:33.000Z,1253.0
2023-03-29T07:27:32.000Z,1265.0
2023-03-29T07:28:33.000Z,1287.0
2023-03-29T07:29:33.000Z,1259.0
2023-03-29T07:30:33.000Z,1275.0
2023-03-29T07:31:33.000Z,1269.0
2023-03-29T07:32:34.000Z,1252.0
2023-03-29T07:33:33.000Z,1237.0
2023-03-29T07:34:33.000Z,1242.0
2023-03-29T07:35:32.000Z,1242.0
2023-03-29T07:36:33.000Z,1230.0
2023-03-29T07:37:33.000Z,1185.0
2023-03-29T07:38:33.000Z,1174.0
2023-03-29T07:39:33.000Z,1170.0
2023-03-29T07:40:32.000Z,1134.0
2023-03-29T07:41:33.000Z,1134.0
2023-03-29T07:42:33.000Z,1130.0
2023-03-29T07:43:33.000Z,1110.0
2023-03-29T07:44:33.000Z,1119.0
2023-03-29T07:45:33.000Z,1123.0
2023-03-29T07:46:33.000Z,1115.0
2023-03-29T07:47:33.000Z,1073.0
2023-03-29T07:48:33.000Z,1074.0
2023-03-29T07:49:33.000Z,1063.0
2023-03-29T07:50:33.000Z,1053.0
2023-03-29T07:51:32.000Z,1054.0
2023-03-29T07:52:33.000Z,1021.0
2023-03-29T07:53:33.000Z,1026.0
2023-03-29T07:54:33.000Z,1035.0
2023-03-29T07:55:33.000Z,1018.0
2023-03-29T07:56:32.000Z,1002.0
2023-03-29T07:57:33.000Z,1002.0
2023-03-29T07:58:33.000Z,985.0
2023-03-29T07:59:32.000Z,999.0
2023-03-29T08:00:33.000Z,999.0
2023-03-29T08:01:33.000Z,995.0
2023-03-29T08:02:33.000Z,982.0
2023-03-29T08:03:33.000Z,964.0
2023-03-29T08:04:32.000Z,950.0
2023-03-29T08:05:33.000Z,968.0
2023-03-29T08:06:33.000Z,991.0
2023-03-29T08:07:33.000Z,976.0
2023-03-29T08:08:33.000Z,968.0
2023-03-29T08:09:33.000Z,984.0
2023-03-29T08:10:33.000Z,979.0
2023-03-29T08:11:33.000Z,994.0
2023-03-29T08:12:32.000Z,1011.0
2023-03-29T08:13:33.000Z,1032.0
2023-03-29T08:14:33.000Z,1026.0
2023-03-29T08:15:33.000Z,1024.0
2023-03-29T08:16:33.000Z,1009.0
2023-03-29T08:17:32.000Z,989.0
2023-03-29T08:18:33.000Z,1018.0
2023-03-29T08:19:33.000Z,1013.0
2023-03-29T08:20:32.000Z,1026.0
2023-03-29T08:21:33.000Z,1024.0
2023-03-29T08:22:34.000Z,1037.0
2023-03-29T08:23:33.000Z,1026.0
2023-03-29T08:24:33.000Z,1041.0
2023-03-29T08:25:32.000Z,1035.0
2023-03-29T08:26:33.000Z,1020.0
2023-03-29T08:27:33.000Z,967.0
2023-03-29T08:28:33.000Z,962.0
2023-03-29T08:29:33.000Z,995.0
2023-03-29T08:30:32.000Z,980.0
2023-03-29T08:31:33.000Z,971.0
2023-03-29T08:32:33.000Z,992.0
2023-03-29T08:33:33.000Z,990.0
2023-03-29T08:34:33.000Z,997.0
2023-03-29T08:35:33.000Z,976.0
2023-03-29T08:36:33.000Z,959.0
2023-03-29T08:37:33.000Z,962.0
2023-03-29T08:38:32.000Z,952.0
2023-03-29T08:39:33.000Z,963.0
2023-03-29T08:40:33.000Z,950.0
2023-03-29T08:41:33.000Z,934.0
2023-03-29T08:42:33.000Z,919.0
2023-03-29T08:43:32.000Z,960.0
2023-03-29T08:44:33.000Z,976.0
2023-03-29T08:45:33.000Z,966.0
2023-03-29T08:46:32.000Z,952.0
2023-03-29T08:47:33.000Z,940.0
2023-03-29T08:48:33.000Z,953.0
2023-03-29T08:49:32.000Z,965.0
2023-03-29T08:50:33.000Z,942.0
2023-03-29T08:51:33.000Z,927.0
2023-03-29T08:52:33.000Z,921.0
2023-03-29T08:53:33.000Z,927.0
2023-03-29T08:54:32.000Z,920.0
2023-03-29T08:55:33.000Z,913.0
2023-03-29T08:56:33.000Z,917.0
2023-03-29T08:57:32.000Z,906.0
2023-03-29T08:58:33.000Z,909.0
2023-03-29T08:59:33.000Z,903.0
2023-03-29T09:00:33.000Z,903.0
2023-03-29T09:01:33.000Z,893.0
2023-03-29T09:02:32.000Z,896.0
2023-03-29T09:03:33.000Z,882.0
2023-03-29T09:04:33.000Z,884.0
2023-03-29T09:05:33.000Z,900.0
2023-03-29T09:06:33.000Z,892.0
2023-03-29T09:07:32.000Z,880.0
2023-03-29T09:08:33.000Z,867.0
2023-03-29T09:09:33.000Z,865.0
2023-03-29T09:10:32.000Z,861.0
2023-03-29T09:11:33.000Z,860.0
2023-03-29T09:12:33.000Z,854.0
2023-03-29T09:13:33.000Z,862.0
2023-03-29T09:14:33.000Z,845.0
2023-03-29T09:15:32.000Z,838.0
2023-03-29T09:16:33.000Z,848.0
2023-03-29T09:17:33.000Z,850.0
2023-03-29T09:18:33.000Z,846.0
2023-03-29T09:19:33.000Z,854.0
2023-03-29T09:20:32.000Z,856.0
2023-03-29T09:21:33.000Z,866.0
2023-03-29T09:22:33.000Z,860.0
2023-03-29T09:23:32.000Z,858.0
2023-03-29T09:24:33.000Z,861.0
2023-03-29T09:25:33.000Z,875.0
2023-03-29T09:26:33.000Z,866.0
2023-03-29T09:27:33.000Z,836.0
2023-03-29T09:28:32.000Z,836.0
2023-03-29T09:29:33.000Z,837.0
2023-03-29T09:30:33.000Z,846.0
2023-03-29T09:31:33.000Z,862.0
2023-03-29T09:32:33.000Z,858.0
2023-03-29T09:33:32.000Z,890.0
2023-03-29T09:34:33.000Z,885.0
2023-03-29T09:35:33.000Z,868.0
2023-03-29T09:36:32.000Z,861.0
2023-03-29T09:37:33.000Z,859.0
2023-03-29T09:38:33.000Z,843.0
2023-03-29T09:39:33.000Z,852.0
2023-03-29T09:40:33.000Z,863.0
2023-03-29T09:41:32.000Z,840.0
2023-03-29T09:42:33.000Z,847.0
2023-03-29T09:43:33.000Z,846.0
2023-03-29T09:44:33.000Z,855.0
2023-03-29T09:45:33.000Z,840.0
2023-03-29T09:46:33.000Z,853.0
2023-03-29T09:47:33.000Z,836.0
2023-03-29T09:48:33.000Z,844.0
2023-03-29T09:49:33.000Z,845.0
2023-03-29T09:50:33.000Z,826.0
2023-03-29T09:51:33.000Z,827.0
2023-03-29T09:52:32.000Z,842.0
2023-03-29T09:53:33.000Z,851.0
2023-03-29T09:54:33.000Z,851.0
2023-03-29T09:55:33.000Z,845.0
2023-03-29T09:56:33.000Z,834.0
2023-03-29T09:57:33.000Z,847.0
2023-03-29T09:58:33.000Z,839.0
2023-03-29T09:59:33.000Z,854.0
2023-03-29T10:00:32.000Z,826.0
2023-03-29T10:01:33.000Z,851.0
2023-03-29T10:02:33.000Z,855.0
2023-03-29T10:03:33.000Z,853.0
2023-03-29T10:04:33.000Z,869.0
2023-03-29T10:05:32.000Z,881.0
2023-03-29T10:06:33.000Z,884.0
2023-03-29T10:07:33.000Z,873.0
2023-03-29T10:08:32.000Z,869.0
2023-03-29T10:09:33.000Z,865.0
2023-03-29T10:10:33.000Z,864.0
2023-03-29T10:11:33.000Z,876.0
2023-03-29T10:12:33.000Z,900.0
2023-03-29T10:13:32.000Z,898.0
2023-03-29T10:14:33.000Z,891.0
2023-03-29T10:15:33.000Z,887.0
2023-03-29T10:16:33.000Z,894.0
2023-03-29T10:17:33.000Z,898.0
2023-03-29T10:18:32.000Z,912.0
2023-03-29T10:19:33.000Z,915.0
2023-03-29T10:20:33.000Z,919.0
2023-03-29T10:21:32.000Z,951.0
2023-03-29T10:22:33.000Z,968.0
2023-03-29T10:23:33.000Z,971.0
2023-03-29T10:24:33.000Z,967.0
2023-03-29T10:25:33.000Z,971.0
2023-03-29T10:26:32.000Z,988.0
2023-03-29T10:27:33.000Z,1006.0
2023-03-29T10:28:33.000Z,991.0
2023-03-29T10:29:33.000Z,981.0
2023-03-29T10:30:33.000Z,972.0
2023-03-29T10:31:32.000Z,954.0
2023-03-29T10:32:33.000Z,962.0
2023-03-29T10:33:33.000Z,964.0
2023-03-29T10:34:32.000Z,979.0
2023-03-29T10:35:33.000Z,979.0
2023-03-29T10:36:33.000Z,993.0
2023-03-29T10:37:33.000Z,960.0
2023-03-29T10:38:33.000Z,956.0
2023-03-29T10:39:32.000Z,950.0
2023-03-29T10:40:33.000Z,938.0
2023-03-29T10:41:33.000Z,948.0
2023-03-29T10:42:33.000Z,965.0
2023-03-29T10:43:33.000Z,971.0
2023-03-29T10:44:32.000Z,979.0
2023-03-29T10:45:33.000Z,959.0
2023-03-29T10:46:33.000Z,939.0
2023-03-29T10:47:32.000Z,918.0
2023-03-29T10:48:33.000Z,914.0
2023-03-29T10:49:33.000Z,901.0
2023-03-29T10:50:32.000Z,896.0
2023-03-29T10:51:33.000Z,888.0
2023-03-29T10:52:33.000Z,878.0
2023-03-29T10:53:33.000Z,891.0
2023-03-29T10:54:33.000Z,894.0
2023-03-29T10:55:32.000Z,902.0
2023-03-29T10:56:33.000Z,905.0
2023-03-29T10:57:33.000Z,895.0
2023-03-29T10:58:32.000Z,894.0
2023-03-29T10:59:33.000Z,913.0
2023-03-29T11:00:33.000Z,899.0
2023-03-29T11:01:33.000Z,910.0
2023-03-29T11:02:33.000Z,909.0
2023-03-29T11:03:32.000Z,900.0
2023-03-29T11:04:33.000Z,894.0
2023-03-29T11:06:33.000Z,914.0
2023-03-29T11:07:33.000Z,907.0
2023-03-29T11:08:33.000Z,897.0
2023-03-29T11:09:33.000Z,896.0
2023-03-29T11:10:33.000Z,911.0
2023-03-29T11:11:32.000Z,911.0
2023-03-29T11:12:33.000Z,917.0
2023-03-29T11:13:33.000Z,916.0
2023-03-29T11:14:33.000Z,921.0
2023-03-29T11:15:33.000Z,932.0
2023-03-29T11:16:32.000Z,948.0
2023-03-29T11:17:33.000Z,924.0
2023-03-29T11:18:33.000Z,940.0
2023-03-29T11:19:32.000Z,944.0
2023-03-29T11:20:33.000Z,956.0
2023-03-29T11:21:32.000Z,955.0
2023-03-29T11:22:33.000Z,956.0
2023-03-29T11:23:33.000Z,939.0
2023-03-29T11:24:32.000Z,950.0
2023-03-29T11:25:33.000Z,967.0
2023-03-29T11:26:33.000Z,951.0
2023-03-29T11:27:33.000Z,922.0
2023-03-29T11:28:33.000Z,918.0
2023-03-29T11:29:32.000Z,922.0
2023-03-29T11:30:33.000Z,916.0
2023-03-29T11:31:33.000Z,919.0
2023-03-29T11:32:32.000Z,930.0
2023-03-29T11:33:33.000Z,914.0
2023-03-29T11:34:33.000Z,916.0
2023-03-29T11:35:33.000Z,893.0
2023-03-29T11:36:33.000Z,902.0
2023-03-29T11:37:32.000Z,900.0
2023-03-29T11:38:33.000Z,887.0
2023-03-29T11:39:33.000Z,882.0
2023-03-29T11:40:33.000Z,884.0
2023-03-29T11:41:33.000Z,875.0
2023-03-29T11:42:32.000Z,895.0
2023-03-29T11:43:33.000Z,899.0
2023-03-29T11:44:33.000Z,905.0
2023-03-29T11:45:32.000Z,904.0
2023-03-29T11:46:33.000Z,908.0
2023-03-29T11:47:33.000Z,906.0
2023-03-29T11:48:32.000Z,904.0
2023-03-29T11:49:33.000Z,923.0
2023-03-29T11:50:33.000Z,919.0
2023-03-29T11:51:33.000Z,916.0
2023-03-29T11:52:33.000Z,904.0
2023-03-29T11:53:32.000Z,907.0
2023-03-29T11:54:33.000Z,905.0
2023-03-29T11:55:33.000Z,916.0
2023-03-29T11:56:32.000Z,933.0
2023-03-29T11:57:33.000Z,934.0
2023-03-29T11:58:32.000Z,948.0
2023-03-29T11:59:33.000Z,930.0
2023-03-29T12:00:33.000Z,934.0
2023-03-29T12:01:32.000Z,939.0
2023-03-29T12:02:33.000Z,960.0
2023-03-29T12:03:33.000Z,947.0
2023-03-29T12:04:33.000Z,946.0
2023-03-29T12:05:33.000Z,939.0
2023-03-29T12:06:32.000Z,956.0
2023-03-29T12:07:33.000Z,983.0
2023-03-29T12:08:33.000Z,998.0
2023-03-29T12:09:32.000Z,970.0
2023-03-29T12:10:33.000Z,970.0
2023-03-29T12:11:33.000Z,961.0
2023-03-29T12:12:33.000Z,954.0
2023-03-29T12:13:33.000Z,963.0
2023-03-29T12:14:32.000Z,961.0
2023-03-29T12:15:33.000Z,974.0
2023-03-29T12:16:33.000Z,974.0
2023-03-29T12:17:33.000Z,945.0
2023-03-29T12:18:33.000Z,945.0
2023-03-29T12:19:32.000Z,977.0
2023-03-29T12:20:33.000Z,963.0
2023-03-29T12:21:33.000Z,963.0
2023-03-29T12:22:32.000Z,979.0
2023-03-29T12:23:33.000Z,1009.0
2023-03-29T12:24:33.000Z,1024.0
2023-03-29T12:25:33.000Z,1062.0
2023-03-29T12:26:33.000Z,1058.0
2023-03-29T12:27:32.000Z,1024.0
2023-03-29T12:28:33.000Z,1030.0
2023-03-29T12:29:33.000Z,1018.0
2023-03-29T12:30:33.000Z,1012.0
2023-03-29T12:31:33.000Z,1014.0
2023-03-29T12:32:32.000Z,1008.0
2023-03-29T12:33:33.000Z,1016.0
2023-03-29T12:34:33.000Z,1027.0
2023-03-29T12:35:32.000Z,1033.0
2023-03-29T12:36:33.000Z,1028.0
2023-03-29T12:37:33.000Z,1021.0
2023-03-29T12:38:33.000Z,1051.0